createdAt,value
2022-12-31T00:00:47.942Z,0.55
2022-12-31T00:03:42.225Z,0.90
2022-12-31T00:06:36.886Z,0.88
2022-12-31T00:09:30.379Z,0.80
2022-12-31T00:12:25.364Z,0.98
2022-12-31T00:15:18.442Z,0.70
2022-12-31T00:18:12.110Z,0.75
2022-12-31T00:21:07.159Z,0.98
2022-12-31T00:24:00.287Z,0.90
2022-12-31T00:26:53.530Z,0.70
2022-12-31T00:29:47.644Z,0.60
2022-12-31T00:32:40.722Z,0.73
2022-12-31T00:35:34.823Z,1.02
2022-12-31T00:38:28.176Z,0.60
2022-12-31T00:41:22.711Z,0.90
2022-12-31T00:44:16.527Z,0.63
2022-12-31T00:47:10.573Z,0.80
2022-12-31T00:50:03.534Z,0.90
2022-12-31T00:52:56.143Z,0.93
2022-12-31T00:55:49.733Z,0.60
2022-12-31T00:58:43.669Z,0.50
2022-12-31T01:01:39.483Z,0.82
2022-12-31T01:04:33.314Z,0.80
2022-12-31T01:07:26.421Z,0.60
2022-12-31T01:10:40.898Z,0.65
2022-12-31T01:13:34.482Z,0.50
2022-12-31T01:16:30.339Z,0.73
2022-12-31T01:19:25.243Z,0.73
2022-12-31T01:22:19.853Z,0.70
2022-12-31T01:25:13.427Z,0.70
2022-12-31T01:28:07.293Z,0.60
2022-12-31T01:31:00.727Z,0.70
2022-12-31T01:33:54.720Z,0.77
2022-12-31T01:36:47.701Z,0.60
2022-12-31T01:39:41.831Z,0.60
2022-12-31T01:42:35.648Z,0.60
2022-12-31T01:45:28.508Z,0.50
2022-12-31T01:48:25.692Z,0.85
2022-12-31T01:51:18.920Z,0.63
2022-12-31T01:54:16.127Z,0.57
2022-12-31T01:57:11.991Z,0.50
2022-12-31T02:00:07.630Z,0.68
2022-12-31T02:03:00.673Z,0.68
2022-12-31T02:05:58.940Z,0.70
2022-12-31T02:08:52.581Z,0.45
2022-12-31T02:11:45.663Z,0.65
2022-12-31T02:14:43.306Z,0.70
2022-12-31T02:17:44.453Z,0.55
2022-12-31T02:20:55.374Z,0.45
2022-12-31T02:24:18.904Z,0.45
2022-12-31T02:27:16.521Z,0.75
2022-12-31T02:30:14.230Z,0.70
2022-12-31T02:33:17.834Z,0.68
2022-12-31T02:36:16.282Z,0.70
2022-12-31T02:39:11.590Z,0.60
2022-12-31T02:42:05.107Z,0.60
2022-12-31T02:44:58.098Z,0.80
2022-12-31T02:48:07.210Z,0.70
2022-12-31T02:51:13.159Z,0.60
2022-12-31T02:54:30.113Z,0.60
2022-12-31T02:57:30.560Z,0.88
2022-12-31T03:00:40.779Z,0.70
2022-12-31T03:03:36.984Z,0.60
2022-12-31T03:06:30.559Z,0.60
2022-12-31T03:09:23.612Z,0.90
2022-12-31T03:12:35.412Z,0.77
2022-12-31T03:15:30.924Z,0.90
2022-12-31T03:18:55.579Z,0.50
2022-12-31T03:22:07.501Z,0.70
2022-12-31T03:25:20.202Z,0.60
2022-12-31T03:28:15.495Z,0.82
2022-12-31T03:31:08.431Z,0.70
2022-12-31T03:34:01.810Z,0.90
2022-12-31T03:36:56.593Z,0.90
2022-12-31T03:39:49.707Z,1.05
2022-12-31T03:42:42.873Z,0.75
2022-12-31T03:45:36.550Z,0.65
2022-12-31T03:48:29.722Z,0.70
2022-12-31T03:51:22.313Z,1.02
2022-12-31T03:54:16.723Z,0.88
2022-12-31T03:57:09.746Z,0.90
2022-12-31T04:00:02.830Z,0.80
2022-12-31T04:02:56.595Z,0.98
2022-12-31T04:05:54.385Z,0.70
2022-12-31T04:08:47.672Z,0.70
2022-12-31T04:11:41.868Z,0.80
2022-12-31T04:14:35.645Z,0.93
2022-12-31T04:17:29.147Z,0.98
2022-12-31T04:20:22.599Z,0.90
2022-12-31T04:23:15.710Z,0.73
2022-12-31T04:26:08.480Z,0.82
2022-12-31T04:29:02.697Z,1.00
2022-12-31T04:31:55.632Z,1.20
2022-12-31T04:34:48.517Z,0.77
2022-12-31T04:37:41.794Z,0.95
2022-12-31T04:40:34.983Z,0.95
2022-12-31T04:43:28.923Z,1.27
2022-12-31T04:46:26.611Z,1.05
2022-12-31T04:49:19.762Z,0.80
2022-12-31T04:52:12.404Z,1.00
2022-12-31T04:55:06.510Z,0.98
2022-12-31T04:57:59.579Z,1.10
2022-12-31T05:00:54.571Z,0.90
2022-12-31T05:03:49.234Z,1.02
2022-12-31T05:06:42.720Z,0.93
2022-12-31T05:09:35.883Z,1.10
2022-12-31T05:12:28.624Z,1.10
2022-12-31T05:15:21.622Z,1.00
2022-12-31T05:18:15.162Z,0.98
2022-12-31T05:21:11.895Z,1.00
2022-12-31T05:24:04.883Z,0.88
2022-12-31T05:26:58.912Z,0.80
2022-12-31T05:29:52.635Z,1.02
2022-12-31T05:32:45.787Z,1.00
2022-12-31T05:35:38.718Z,0.93
2022-12-31T05:38:32.875Z,1.08
2022-12-31T05:41:25.383Z,0.95
2022-12-31T05:44:20.712Z,1.00
2022-12-31T05:47:13.355Z,1.00
2022-12-31T05:50:07.611Z,0.88
2022-12-31T05:53:01.034Z,0.98
2022-12-31T05:55:56.358Z,0.85
2022-12-31T05:58:49.652Z,1.00
2022-12-31T06:01:42.663Z,0.75
2022-12-31T06:04:35.597Z,1.10
2022-12-31T06:07:28.793Z,0.85
2022-12-31T06:10:21.645Z,1.00
2022-12-31T06:13:15.959Z,0.82
2022-12-31T06:16:11.206Z,0.90
2022-12-31T06:19:04.620Z,0.90
2022-12-31T06:21:57.988Z,0.70
2022-12-31T06:24:51.549Z,1.00
2022-12-31T06:27:44.812Z,0.80
2022-12-31T06:30:38.987Z,1.00
2022-12-31T06:33:32.802Z,0.88
2022-12-31T06:36:27.132Z,0.82
2022-12-31T06:39:20.685Z,0.90
2022-12-31T06:42:14.332Z,0.90
2022-12-31T06:45:08.960Z,0.98
2022-12-31T06:48:03.269Z,0.80
2022-12-31T06:50:56.791Z,0.80
2022-12-31T06:53:51.628Z,0.90
2022-12-31T06:56:45.408Z,1.10
2022-12-31T06:59:39.332Z,1.10
2022-12-31T07:03:00.442Z,1.00
2022-12-31T07:06:03.273Z,0.70
2022-12-31T07:09:05.389Z,0.85
2022-12-31T07:12:09.014Z,0.70
2022-12-31T07:15:06.505Z,1.20
2022-12-31T07:18:07.909Z,0.80
2022-12-31T07:21:02.805Z,0.95
2022-12-31T07:23:55.921Z,1.00
2022-12-31T07:27:11.979Z,0.93
2022-12-31T07:30:08.402Z,0.80
2022-12-31T07:33:14.221Z,0.80
2022-12-31T07:36:22.544Z,0.80
2022-12-31T07:39:22.006Z,0.90
2022-12-31T07:42:21.047Z,1.00
2022-12-31T07:45:21.420Z,0.80
2022-12-31T07:48:23.964Z,1.00
2022-12-31T07:51:19.126Z,0.70
2022-12-31T07:54:14.356Z,0.80
2022-12-31T07:57:07.749Z,0.52
2022-12-31T08:00:07.759Z,1.05
2022-12-31T08:03:11.469Z,0.90
2022-12-31T08:06:13.370Z,0.55
2022-12-31T08:09:17.948Z,0.90
2022-12-31T08:12:10.978Z,0.95
2022-12-31T08:15:12.711Z,0.80
2022-12-31T08:18:07.011Z,1.20
2022-12-31T08:21:09.328Z,1.13
2022-12-31T08:24:16.412Z,0.98
2022-12-31T08:27:20.879Z,0.90
2022-12-31T08:30:16.529Z,1.10
2022-12-31T08:33:15.117Z,1.30
2022-12-31T08:36:19.166Z,1.02
2022-12-31T08:39:25.220Z,1.52
2022-12-31T08:42:26.583Z,1.13
2022-12-31T08:45:27.037Z,1.15
2022-12-31T08:48:27.505Z,1.10
2022-12-31T08:51:23.002Z,1.27
2022-12-31T08:54:17.722Z,1.08
2022-12-31T08:57:21.969Z,0.80
2022-12-31T09:00:17.359Z,1.40
2022-12-31T09:03:40.049Z,0.90
2022-12-31T09:06:37.106Z,1.33
2022-12-31T09:09:43.405Z,1.10
2022-12-31T09:12:43.805Z,1.48
2022-12-31T09:15:43.206Z,1.10
2022-12-31T09:18:41.364Z,1.45
2022-12-31T09:21:35.104Z,1.80
2022-12-31T09:24:29.644Z,1.60
2022-12-31T09:27:31.157Z,1.52
2022-12-31T09:30:26.737Z,1.42
2022-12-31T09:33:35.477Z,1.88
2022-12-31T09:36:33.057Z,2.00
2022-12-31T09:39:38.153Z,2.40
2022-12-31T09:42:58.855Z,2.75
2022-12-31T09:46:25.939Z,2.60
2022-12-31T09:49:49.609Z,2.35
2022-12-31T09:53:02.421Z,1.83
2022-12-31T09:56:02.088Z,2.60
2022-12-31T09:59:03.982Z,2.83
2022-12-31T10:02:03.381Z,3.20
2022-12-31T10:05:13.848Z,3.35
2022-12-31T10:08:21.171Z,2.65
2022-12-31T10:11:20.563Z,2.75
2022-12-31T10:14:28.949Z,2.33
2022-12-31T10:17:38.764Z,2.60
2022-12-31T10:20:56.164Z,3.55
2022-12-31T10:24:28.588Z,4.35
2022-12-31T10:27:39.415Z,4.03
2022-12-31T10:30:36.532Z,3.53
2022-12-31T10:33:42.521Z,3.30
2022-12-31T10:36:55.975Z,2.92
2022-12-31T10:40:00.700Z,3.08
2022-12-31T10:43:27.311Z,3.55
2022-12-31T10:47:02.997Z,2.95
2022-12-31T10:50:42.282Z,2.83
2022-12-31T10:54:10.427Z,2.65
2022-12-31T10:57:43.450Z,2.65
2022-12-31T11:00:46.529Z,2.50
2022-12-31T11:04:09.252Z,2.53
2022-12-31T11:07:33.543Z,2.92
2022-12-31T11:11:00.778Z,2.70
2022-12-31T11:14:17.017Z,2.22
2022-12-31T11:17:35.365Z,2.00
2022-12-31T11:20:57.436Z,2.20
2022-12-31T11:23:58.193Z,2.40
2022-12-31T11:27:07.382Z,2.33
2022-12-31T11:30:10.872Z,3.85
2022-12-31T11:33:19.220Z,2.22
2022-12-31T11:36:25.437Z,3.40
2022-12-31T11:39:35.265Z,3.95
2022-12-31T11:42:45.070Z,2.90
2022-12-31T11:46:09.425Z,3.58
2022-12-31T11:49:16.308Z,3.00
2022-12-31T11:52:44.362Z,2.55
2022-12-31T11:55:54.079Z,2.28
2022-12-31T11:58:49.469Z,2.20
2022-12-31T12:01:53.812Z,2.20
2022-12-31T12:04:50.821Z,2.90
2022-12-31T12:07:45.576Z,2.65
2022-12-31T12:10:42.976Z,3.35
2022-12-31T12:13:36.057Z,3.33
2022-12-31T12:16:29.560Z,2.90
2022-12-31T12:19:27.757Z,3.03
2022-12-31T12:22:23.887Z,2.83
2022-12-31T12:25:21.482Z,3.17
2022-12-31T12:28:23.754Z,3.00
2022-12-31T12:31:21.703Z,2.17
2022-12-31T12:34:25.006Z,2.38
2022-12-31T12:37:29.649Z,2.55
2022-12-31T12:40:31.492Z,2.55
2022-12-31T12:43:28.915Z,2.30
2022-12-31T12:46:33.056Z,3.00
2022-12-31T12:49:28.292Z,2.58
2022-12-31T12:52:59.119Z,2.17
2022-12-31T12:56:06.546Z,2.38
2022-12-31T12:59:30.339Z,2.42
2022-12-31T13:02:51.694Z,1.90
2022-12-31T13:06:07.565Z,2.28
2022-12-31T13:09:19.121Z,2.20
2022-12-31T13:12:23.015Z,1.98
2022-12-31T13:15:22.348Z,2.40
2022-12-31T13:18:38.561Z,2.55
2022-12-31T13:21:42.541Z,2.00
2022-12-31T13:24:50.377Z,1.67
2022-12-31T13:27:47.672Z,2.30
2022-12-31T13:30:43.393Z,2.35
2022-12-31T13:33:40.959Z,2.67
2022-12-31T13:36:38.769Z,2.40
2022-12-31T13:39:37.520Z,2.10
2022-12-31T13:42:40.235Z,1.67
2022-12-31T13:45:40.091Z,2.00
2022-12-31T13:48:38.209Z,2.00
2022-12-31T13:51:41.763Z,1.85
2022-12-31T13:54:42.266Z,1.90
2022-12-31T13:57:43.138Z,2.08
2022-12-31T14:00:42.354Z,2.30
2022-12-31T14:03:45.257Z,1.60
2022-12-31T14:06:45.632Z,2.08
2022-12-31T14:09:39.050Z,2.85
2022-12-31T14:12:39.632Z,1.88
2022-12-31T14:15:38.119Z,2.35
2022-12-31T14:18:42.468Z,1.83
2022-12-31T14:21:44.258Z,1.80
2022-12-31T14:24:45.209Z,3.00
2022-12-31T14:27:41.528Z,2.13
2022-12-31T14:30:40.736Z,2.10
2022-12-31T14:33:50.707Z,1.88
2022-12-31T14:36:54.700Z,1.95
2022-12-31T14:39:56.099Z,2.33
2022-12-31T14:42:56.888Z,3.22
2022-12-31T14:46:02.032Z,2.63
2022-12-31T14:49:07.502Z,3.22
2022-12-31T14:52:09.951Z,3.03
2022-12-31T14:55:20.711Z,2.70
2022-12-31T14:58:28.918Z,2.78
2022-12-31T15:01:25.935Z,2.15
2022-12-31T15:04:32.715Z,2.38
2022-12-31T15:07:35.425Z,2.60
2022-12-31T15:10:40.985Z,2.58
2022-12-31T15:13:48.246Z,2.67
2022-12-31T15:16:49.846Z,2.88
2022-12-31T15:20:17.663Z,2.83
2022-12-31T15:23:20.680Z,2.00
2022-12-31T15:26:23.069Z,1.88
2022-12-31T15:29:26.425Z,1.83
2022-12-31T15:32:23.919Z,2.10
2022-12-31T15:35:30.326Z,2.22
2022-12-31T15:38:35.826Z,1.90
2022-12-31T15:41:37.398Z,1.70
2022-12-31T15:44:36.547Z,2.22
2022-12-31T15:47:31.957Z,1.98
2022-12-31T15:50:27.342Z,2.03
2022-12-31T15:53:29.479Z,1.80
2022-12-31T15:56:32.151Z,1.88
2022-12-31T15:59:26.078Z,1.83
2022-12-31T16:02:22.969Z,1.77
2022-12-31T16:05:24.629Z,1.88
2022-12-31T16:08:22.503Z,2.10
2022-12-31T16:11:16.725Z,1.90
2022-12-31T16:14:20.557Z,2.05
2022-12-31T16:17:27.641Z,1.50
2022-12-31T16:20:24.206Z,1.45
2022-12-31T16:23:22.626Z,1.95
2022-12-31T16:26:15.895Z,1.52
2022-12-31T16:29:15.375Z,2.08
2022-12-31T16:32:13.147Z,1.40
2022-12-31T16:35:23.779Z,1.70
2022-12-31T16:38:20.200Z,1.45
2022-12-31T16:41:19.133Z,2.00
2022-12-31T16:44:26.329Z,1.20
2022-12-31T16:47:22.460Z,1.63
2022-12-31T16:50:18.903Z,1.30
2022-12-31T16:53:17.403Z,1.50
2022-12-31T16:56:12.012Z,1.60
2022-12-31T16:59:15.011Z,1.52
2022-12-31T17:02:17.040Z,1.48
2022-12-31T17:05:20.485Z,1.73
2022-12-31T17:08:24.781Z,1.40
2022-12-31T17:11:23.910Z,1.23
2022-12-31T17:14:19.264Z,1.27
2022-12-31T17:17:22.022Z,1.15
2022-12-31T17:20:23.386Z,1.50
2022-12-31T17:23:24.487Z,1.30
2022-12-31T17:26:25.835Z,1.55
2022-12-31T17:29:26.314Z,1.65
2022-12-31T17:32:32.017Z,1.13
2022-12-31T17:35:30.879Z,1.33
2022-12-31T17:38:33.803Z,1.60
2022-12-31T17:41:29.137Z,1.40
2022-12-31T17:44:23.996Z,1.50
2022-12-31T17:47:17.267Z,1.52
2022-12-31T17:50:20.817Z,1.52
2022-12-31T17:53:14.242Z,1.35
2022-12-31T17:56:16.667Z,1.50
2022-12-31T17:59:16.805Z,1.25
2022-12-31T18:02:14.056Z,0.93
2022-12-31T18:05:15.441Z,1.42
2022-12-31T18:08:08.250Z,1.30
2022-12-31T18:11:01.433Z,1.10
2022-12-31T18:13:54.921Z,1.35
2022-12-31T18:16:49.471Z,1.30
2022-12-31T18:22:55.867Z,1.15
2022-12-31T18:25:49.085Z,1.23
2022-12-31T18:28:42.805Z,1.38
2022-12-31T18:31:36.122Z,1.30
2022-12-31T18:34:30.629Z,1.08
2022-12-31T18:37:24.177Z,1.10
2022-12-31T18:40:17.496Z,1.58
2022-12-31T18:43:15.482Z,1.15
2022-12-31T18:46:11.940Z,1.13
2022-12-31T18:49:05.411Z,0.93
2022-12-31T18:51:59.793Z,1.00
2022-12-31T18:54:52.908Z,1.35
2022-12-31T18:57:46.242Z,1.33
2022-12-31T19:00:39.782Z,1.17
2022-12-31T19:03:33.153Z,1.40
2022-12-31T19:06:26.821Z,1.25
2022-12-31T19:12:35.480Z,1.10
2022-12-31T19:15:32.834Z,1.38
2022-12-31T19:18:26.332Z,1.20
2022-12-31T19:21:22.377Z,0.93
2022-12-31T19:24:18.543Z,1.30
2022-12-31T19:27:12.851Z,1.17
2022-12-31T19:30:07.692Z,1.35
2022-12-31T19:33:01.837Z,0.98
2022-12-31T19:35:55.296Z,1.35
2022-12-31T19:38:48.601Z,2.67
2022-12-31T19:41:43.578Z,2.13
2022-12-31T19:44:37.889Z,2.72
2022-12-31T19:47:31.383Z,2.13
2022-12-31T19:50:26.929Z,2.08
2022-12-31T19:53:23.110Z,2.33
2022-12-31T19:56:18.800Z,1.88
2022-12-31T19:59:12.443Z,1.75
2022-12-31T20:02:06.908Z,2.40
2022-12-31T20:05:00.105Z,1.77
2022-12-31T20:07:53.413Z,2.10
2022-12-31T20:10:46.533Z,1.60
2022-12-31T20:13:40.293Z,1.98
2022-12-31T20:16:33.985Z,2.10
2022-12-31T20:19:29.056Z,1.85
2022-12-31T20:22:22.170Z,2.13
2022-12-31T20:25:14.918Z,1.95
2022-12-31T20:28:08.252Z,2.38
2022-12-31T20:31:06.294Z,1.92
2022-12-31T20:33:59.122Z,1.63
2022-12-31T20:36:53.393Z,1.75
2022-12-31T20:39:46.535Z,1.67
2022-12-31T20:42:40.930Z,1.70
2022-12-31T20:45:34.236Z,2.08
2022-12-31T20:48:27.296Z,2.10
2022-12-31T20:51:23.716Z,1.80
2022-12-31T20:54:18.447Z,2.08
2022-12-31T20:57:11.677Z,2.25
2022-12-31T21:00:07.110Z,2.08
2022-12-31T21:03:08.494Z,1.80
2022-12-31T21:06:13.277Z,1.75
2022-12-31T21:09:08.320Z,2.00
2022-12-31T21:12:20.706Z,1.60
2022-12-31T21:15:14.683Z,1.80
2022-12-31T21:18:08.370Z,1.90
2022-12-31T21:21:01.359Z,2.00
2022-12-31T21:23:54.419Z,1.90
2022-12-31T21:26:47.496Z,1.80
2022-12-31T21:30:10.092Z,1.98
2022-12-31T21:32:54.147Z,2.05
2022-12-31T21:35:53.960Z,1.80
2022-12-31T21:38:47.370Z,2.00
2022-12-31T21:41:52.541Z,2.10
2022-12-31T21:44:46.728Z,1.90
2022-12-31T21:47:57.603Z,2.17
2022-12-31T21:50:51.838Z,1.70
2022-12-31T21:53:45.464Z,2.03
2022-12-31T21:56:38.522Z,2.05
2022-12-31T21:59:58.283Z,1.73
2022-12-31T22:03:21.112Z,1.60
2022-12-31T22:06:16.825Z,1.70
2022-12-31T22:09:10.298Z,2.10
2022-12-31T22:12:03.724Z,1.50
2022-12-31T22:15:14.946Z,2.00
2022-12-31T22:18:10.722Z,1.73
2022-12-31T22:21:09.610Z,1.88
2022-12-31T22:24:05.355Z,2.15
2022-12-31T22:26:59.673Z,1.95
2022-12-31T22:30:12.846Z,1.92
2022-12-31T22:33:06.428Z,2.10
2022-12-31T22:36:05.594Z,2.40
2022-12-31T22:38:58.968Z,1.90
2022-12-31T22:41:52.635Z,1.90
2022-12-31T22:44:45.498Z,1.95
2022-12-31T22:47:38.445Z,1.80
2022-12-31T22:50:31.526Z,2.20
2022-12-31T22:53:25.862Z,2.17
2022-12-31T22:56:20.550Z,2.40
2022-12-31T22:59:13.115Z,2.22
2022-12-31T23:02:06.401Z,2.63
2022-12-31T23:05:16.163Z,2.25
2022-12-31T23:08:18.773Z,2.58
2022-12-31T23:11:16.174Z,3.17
2022-12-31T23:14:34.155Z,2.80
2022-12-31T23:17:45.985Z,2.72
2022-12-31T23:20:57.122Z,2.83
2022-12-31T23:23:54.361Z,3.28
2022-12-31T23:26:49.176Z,9.20
2022-12-31T23:29:46.998Z,9.32
2022-12-31T23:32:40.236Z,9.30
2022-12-31T23:35:33.486Z,12.05
2022-12-31T23:38:26.142Z,12.63
2022-12-31T23:41:21.107Z,10.85
2022-12-31T23:44:15.921Z,9.82
2022-12-31T23:47:09.632Z,12.43
2022-12-31T23:50:02.609Z,11.95
2022-12-31T23:52:55.859Z,11.57
2022-12-31T23:55:49.954Z,11.18
2022-12-31T23:58:43.749Z,12.30
